Time;durP1;ratioP1;P1;durP2;ratioP2;P2;SDS_P1;SDS_P2;PMS_P1;PMS_P2;Temp;Humidity;BMP_temperature;BMP_pressure;BME280_temperature;BME280_humidity;BME280_pressure;Samples;Min_cycle;Max_cycle;Signal;HPM_P1;HPM_P2
2020/12/23 00:01:19;;;;;;;18.23;10.35;;;;;;;;;;4973735;28;20057;-73
2020/12/23 00:03:45;;;;;;;18.23;9.90;;;;;;;;;;4973233;28;20053;-74
2020/12/23 00:06:10;;;;;;;19.90;8.35;;;;;;;;;;4973815;28;20477;-73
2020/12/23 00:08:36;;;;;;;12.10;7.38;;;;;;;;;;4988703;28;20039;-73
2020/12/23 00:11:02;;;;;;;8.88;6.72;;;;;;;;;;4973992;28;20444;-73
2020/12/23 00:13:28;;;;;;;11.02;6.68;;;;;;;;;;4976767;28;20035;-74
2020/12/23 00:15:53;;;;;;;8.95;6.63;;;;;;;;;;4975904;28;20043;-73
2020/12/23 00:18:19;;;;;;;19.17;10.07;;;;;;;;;;4976977;28;20109;-73
2020/12/23 00:20:44;;;;;;;15.48;7.97;;;;;;;;;;4977163;28;20093;-73
2020/12/23 00:23:09;;;;;;;10.52;7.82;;;;;;;;;;4976389;28;20118;-73
2020/12/23 00:25:35;;;;;;;8.88;6.60;;;;;;;;;;4976908;28;20045;-73
2020/12/23 00:28:00;;;;;;;8.25;6.05;;;;;;;;;;4976696;28;20037;-73
2020/12/23 00:30:26;;;;;;;15.02;7.30;;;;;;;;;;4976856;28;20047;-73
2020/12/23 00:32:51;;;;;;;10.82;6.60;;;;;;;;;;4976383;28;20034;-73
2020/12/23 00:35:16;;;;;;;12.50;5.93;;;;;;;;;;4976723;28;20547;-73
2020/12/23 00:37:42;;;;;;;7.93;5.10;;;;;;;;;;4976868;28;20485;-73
2020/12/23 00:40:07;;;;;;;8.50;5.50;;;;;;;;;;4976396;28;20031;-74
2020/12/23 00:42:33;;;;;;;7.80;5.30;;;;;;;;;;4976547;28;20042;-74
2020/12/23 00:44:58;;;;;;;7.85;4.68;;;;;;;;;;4974766;28;20022;-74
2020/12/23 00:47:25;;;;;;;7.53;5.70;;;;;;;;;;4976411;28;20045;-74
2020/12/23 00:49:50;;;;;;;7.55;5.38;;;;;;;;;;4976231;28;20547;-74
2020/12/23 00:52:16;;;;;;;9.82;5.90;;;;;;;;;;4976109;28;20035;-73
2020/12/23 00:54:41;;;;;;;6.43;4.90;;;;;;;;;;4991389;28;20043;-74
2020/12/23 00:57:09;;;;;;;7.85;5.03;;;;;;;;;;4976281;28;20472;-74
2020/12/23 00:59:35;;;;;;;8.60;5.30;;;;;;;;;;4976363;28;20038;-74
2020/12/23 01:02:00;;;;;;;8.18;5.55;;;;;;;;;;4976294;28;20522;-73
2020/12/23 01:04:27;;;;;;;10.00;6.47;;;;;;;;;;4976471;28;20031;-73
2020/12/23 01:06:53;;;;;;;12.05;6.22;;;;;;;;;;4976108;28;20039;-73
2020/12/23 01:09:18;;;;;;;7.35;5.25;;;;;;;;;;4975799;28;20039;-73
2020/12/23 01:11:44;;;;;;;9.10;5.05;;;;;;;;;;4990755;28;20039;-74
2020/12/23 01:14:09;;;;;;;5.22;4.07;;;;;;;;;;4976099;28;20046;-73
2020/12/23 01:16:34;;;;;;;5.13;4.07;;;;;;;;;;4976131;28;20039;-73
2020/12/23 01:19:02;;;;;;;7.88;4.75;;;;;;;;;;4975534;28;20083;-73
2020/12/23 01:21:27;;;;;;;7.90;4.30;;;;;;;;;;4976131;28;20042;-74
2020/12/23 01:23:53;;;;;;;4.85;3.65;;;;;;;;;;4975575;28;20039;-73
2020/12/23 01:26:18;;;;;;;6.70;4.30;;;;;;;;;;4975272;28;20041;-73
2020/12/23 01:28:47;;;;;;;10.30;6.30;;;;;;;;;;4976102;28;20044;-73
2020/12/23 01:31:12;;;;;;;15.75;7.40;;;;;;;;;;4989791;28;20262;-73
2020/12/23 01:33:37;;;;;;;11.02;7.05;;;;;;;;;;4975175;28;20035;-73
2020/12/23 01:36:03;;;;;;;8.90;6.53;;;;;;;;;;4975681;28;20089;-73
2020/12/23 01:38:28;;;;;;;8.85;6.15;;;;;;;;;;4975442;28;20155;-73
2020/12/23 01:41:03;;;;;;;7.80;5.30;;;;;;;;;;4975596;28;20097;-73
2020/12/23 01:43:30;;;;;;;7.68;4.90;;;;;;;;;;4975649;28;20047;-73
2020/12/23 01:45:55;;;;;;;6.18;4.85;;;;;;;;;;4974001;28;20058;-73
2020/12/23 01:48:23;;;;;;;8.20;5.20;;;;;;;;;;4974706;28;20035;-73
2020/12/23 01:50:49;;;;;;;8.27;4.60;;;;;;;;;;4975023;28;20118;-73
2020/12/23 01:53:18;;;;;;;6.43;4.10;;;;;;;;;;4974180;28;20106;-73
2020/12/23 01:55:45;;;;;;;5.63;4.70;;;;;;;;;;4975164;28;20108;-73
2020/12/23 01:58:11;;;;;;;9.45;5.13;;;;;;;;;;4975133;28;20469;-74
2020/12/23 02:00:36;;;;;;;11.55;5.53;;;;;;;;;;4975165;28;20101;-73
2020/12/23 02:03:04;;;;;;;8.68;5.90;;;;;;;;;;4975171;28;20457;-74
2020/12/23 02:05:30;;;;;;;15.02;6.50;;;;;;;;;;4975183;28;20469;-74
2020/12/23 02:07:55;;;;;;;9.48;6.60;;;;;;;;;;4974550;28;20047;-74
2020/12/23 02:10:21;;;;;;;8.13;6.55;;;;;;;;;;4974908;28;20035;-74
2020/12/23 02:12:46;;;;;;;11.48;6.20;;;;;;;;;;4974850;28;20039;-74
2020/12/23 02:15:14;;;;;;;7.68;5.60;;;;;;;;;;4974818;28;20062;-74
2020/12/23 02:17:40;;;;;;;7.68;5.75;;;;;;;;;;4974463;28;20045;-74
2020/12/23 02:20:09;;;;;;;7.82;5.45;;;;;;;;;;4990039;28;20051;-74
2020/12/23 02:22:34;;;;;;;6.95;5.80;;;;;;;;;;4974647;28;20041;-74
2020/12/23 02:25:00;;;;;;;6.90;4.90;;;;;;;;;;4974685;28;20030;-74
2020/12/23 02:27:25;;;;;;;6.22;4.57;;;;;;;;;;4974603;28;20039;-74
2020/12/23 02:29:53;;;;;;;9.25;4.53;;;;;;;;;;4974079;28;20077;-74
2020/12/23 02:32:20;;;;;;;7.60;5.03;;;;;;;;;;4974441;28;20481;-74
2020/12/23 02:34:46;;;;;;;8.23;6.35;;;;;;;;;;4973966;28;20042;-74
2020/12/23 02:37:11;;;;;;;12.18;5.75;;;;;;;;;;4974319;28;20038;-74
2020/12/23 02:39:38;;;;;;;8.30;5.68;;;;;;;;;;4974564;28;20039;-74
2020/12/23 02:42:05;;;;;;;8.05;5.57;;;;;;;;;;4973459;28;20113;-74
2020/12/23 02:44:31;;;;;;;9.18;5.72;;;;;;;;;;4973326;28;20043;-73
2020/12/23 02:46:59;;;;;;;6.20;4.80;;;;;;;;;;4974391;28;20092;-73
2020/12/23 02:49:25;;;;;;;6.28;5.40;;;;;;;;;;4974490;28;20058;-73
2020/12/23 02:51:51;;;;;;;6.95;5.35;;;;;;;;;;4973608;28;20476;-74
2020/12/23 02:54:17;;;;;;;7.30;5.68;;;;;;;;;;4974024;28;20057;-74
2020/12/23 02:56:42;;;;;;;6.40;4.97;;;;;;;;;;4974162;28;20038;-74
2020/12/23 02:59:08;;;;;;;8.05;5.22;;;;;;;;;;4988894;28;20045;-73
2020/12/23 03:01:35;;;;;;;6.55;4.82;;;;;;;;;;4974261;28;20039;-73
2020/12/23 03:04:00;;;;;;;6.88;4.75;;;;;;;;;;4974059;28;20121;-73
2020/12/23 03:06:26;;;;;;;9.82;5.32;;;;;;;;;;4973221;28;20070;-74
2020/12/23 03:08:52;;;;;;;7.70;4.72;;;;;;;;;;4973860;28;20093;-73
2020/12/23 03:11:18;;;;;;;8.18;4.47;;;;;;;;;;4974257;28;20045;-74
2020/12/23 03:13:43;;;;;;;7.50;3.58;;;;;;;;;;4973922;28;20049;-73
2020/12/23 03:16:09;;;;;;;6.93;4.57;;;;;;;;;;4974251;28;20034;-74
2020/12/23 03:18:34;;;;;;;5.53;4.40;;;;;;;;;;4973787;28;20054;-74
2020/12/23 03:20:59;;;;;;;6.88;4.53;;;;;;;;;;4974312;28;20186;-75
2020/12/23 03:23:25;;;;;;;5.25;3.95;;;;;;;;;;4974120;28;20385;-74
2020/12/23 03:25:50;;;;;;;5.60;4.35;;;;;;;;;;4973864;28;20465;-74
2020/12/23 03:28:15;;;;;;;6.63;4.25;;;;;;;;;;4974060;28;20133;-73
2020/12/23 03:30:41;;;;;;;6.45;5.30;;;;;;;;;;4973876;28;20043;-74
2020/12/23 03:33:06;;;;;;;5.55;4.20;;;;;;;;;;4973941;28;20042;-74
2020/12/23 03:35:31;;;;;;;7.38;4.70;;;;;;;;;;4989097;28;20035;-74
2020/12/23 03:37:57;;;;;;;6.65;4.53;;;;;;;;;;4973959;28;20038;-74
2020/12/23 03:40:23;;;;;;;19.58;7.15;;;;;;;;;;4973776;28;20404;-73
2020/12/23 03:42:48;;;;;;;13.32;9.02;;;;;;;;;;4974062;28;20380;-73
2020/12/23 03:45:13;;;;;;;17.67;8.15;;;;;;;;;;4973929;28;20047;-73
2020/12/23 03:47:39;;;;;;;24.20;9.50;;;;;;;;;;4976065;28;20035;-73
2020/12/23 03:50:05;;;;;;;20.10;9.52;;;;;;;;;;4977079;28;20042;-73
2020/12/23 03:52:30;;;;;;;9.80;6.40;;;;;;;;;;4977320;28;20035;-73
2020/12/23 03:54:55;;;;;;;12.27;6.60;;;;;;;;;;4977565;28;20065;-74
2020/12/23 03:57:21;;;;;;;13.70;7.70;;;;;;;;;;4991835;28;20065;-74
2020/12/23 03:59:46;;;;;;;14.55;8.68;;;;;;;;;;4977262;28;20401;-73
2020/12/23 04:02:11;;;;;;;23.88;9.85;;;;;;;;;;4992279;28;20042;-73
2020/12/23 04:04:37;;;;;;;16.15;8.50;;;;;;;;;;4977095;28;20043;-73
2020/12/23 04:07:02;;;;;;;15.63;8.98;;;;;;;;;;4977204;28;20491;-73
2020/12/23 04:09:27;;;;;;;22.23;10.93;;;;;;;;;;4992389;28;20039;-73
2020/12/23 04:11:53;;;;;;;16.75;10.68;;;;;;;;;;4977270;28;20039;-73
2020/12/23 04:14:18;;;;;;;18.15;11.45;;;;;;;;;;4977192;28;20061;-73
2020/12/23 04:16:44;;;;;;;13.50;9.27;;;;;;;;;;4976522;28;20409;-73
2020/12/23 04:19:09;;;;;;;19.80;10.38;;;;;;;;;;4977092;28;20488;-74
2020/12/23 04:21:34;;;;;;;12.40;8.57;;;;;;;;;;4977030;28;20119;-74
2020/12/23 04:24:00;;;;;;;12.57;9.00;;;;;;;;;;4977053;28;20031;-74
2020/12/23 04:26:25;;;;;;;14.38;8.57;;;;;;;;;;4976626;28;20038;-74
2020/12/23 04:28:50;;;;;;;16.45;7.90;;;;;;;;;;4976017;28;20508;-74
2020/12/23 04:31:16;;;;;;;13.88;7.80;;;;;;;;;;4977035;28;20117;-74
2020/12/23 04:33:41;;;;;;;10.70;6.97;;;;;;;;;;4976898;28;20508;-74
2020/12/23 04:36:06;;;;;;;10.30;7.03;;;;;;;;;;4976611;28;20042;-74
2020/12/23 04:38:32;;;;;;;10.35;6.45;;;;;;;;;;4976761;28;20050;-74
2020/12/23 04:40:58;;;;;;;8.65;6.90;;;;;;;;;;4976750;28;20399;-74
2020/12/23 04:43:23;;;;;;;9.23;6.63;;;;;;;;;;4976869;28;20038;-74
2020/12/23 04:45:50;;;;;;;8.25;5.93;;;;;;;;;;4976739;28;20416;-74
2020/12/23 04:48:24;;;;;;;7.65;5.75;;;;;;;;;;4975821;28;20047;-74
2020/12/23 04:50:55;;;;;;;7.43;5.45;;;;;;;;;;4976555;28;20089;-74
2020/12/23 04:53:21;;;;;;;8.25;6.18;;;;;;;;;;4976104;28;20136;-74
2020/12/23 04:55:47;;;;;;;8.50;6.45;;;;;;;;;;4976074;28;20035;-74
2020/12/23 04:58:12;;;;;;;10.65;6.68;;;;;;;;;;4975771;28;20034;-74
2020/12/23 05:00:38;;;;;;;13.07;6.50;;;;;;;;;;4976217;28;20045;-74
2020/12/23 05:03:04;;;;;;;14.25;6.38;;;;;;;;;;4975980;28;20045;-74
2020/12/23 05:05:29;;;;;;;12.75;7.47;;;;;;;;;;4974958;28;20042;-74
2020/12/23 05:07:55;;;;;;;11.63;7.25;;;;;;;;;;4976120;28;20047;-74
2020/12/23 05:10:21;;;;;;;9.13;6.32;;;;;;;;;;4976258;28;20429;-74
2020/12/23 05:12:46;;;;;;;11.52;6.05;;;;;;;;;;4976219;28;20081;-74
2020/12/23 05:15:12;;;;;;;10.77;5.78;;;;;;;;;;4975794;28;20066;-74
2020/12/23 05:17:43;;;;;;;7.50;4.97;;;;;;;;;;4975694;28;20041;-74
2020/12/23 05:20:09;;;;;;;15.80;8.63;;;;;;;;;;4976064;28;20027;-74
2020/12/23 05:22:35;;;;;;;13.50;8.57;;;;;;;;;;4975868;28;20484;-74
2020/12/23 05:25:01;;;;;;;13.52;7.80;;;;;;;;;;4975798;28;20491;-74
2020/12/23 05:27:26;;;;;;;21.00;10.25;;;;;;;;;;4974727;28;20039;-74
2020/12/23 05:29:52;;;;;;;14.05;8.90;;;;;;;;;;4975342;28;20118;-74
2020/12/23 05:32:18;;;;;;;12.57;7.90;;;;;;;;;;4974285;28;20114;-74
2020/12/23 05:34:43;;;;;;;10.25;6.28;;;;;;;;;;4975729;28;20396;-74
2020/12/23 05:37:09;;;;;;;10.23;7.00;;;;;;;;;;4975604;28;20097;-74
2020/12/23 05:39:35;;;;;;;9.40;6.13;;;;;;;;;;4975797;28;20090;-74
2020/12/23 05:42:02;;;;;;;10.93;5.68;;;;;;;;;;4975695;28;20031;-74
2020/12/23 05:44:29;;;;;;;6.50;5.10;;;;;;;;;;4975613;28;20044;-74
2020/12/23 05:46:55;;;;;;;6.45;4.65;;;;;;;;;;4974784;28;20030;-74
2020/12/23 05:49:23;;;;;;;7.82;4.80;;;;;;;;;;4975360;28;20061;-74
2020/12/23 05:51:50;;;;;;;9.52;5.65;;;;;;;;;;4975239;28;20472;-74
2020/12/23 05:54:18;;;;;;;11.68;5.13;;;;;;;;;;4975539;28;20046;-74
2020/12/23 05:56:43;;;;;;;11.07;7.82;;;;;;;;;;4975033;28;20085;-74
2020/12/23 05:59:09;;;;;;;9.52;6.00;;;;;;;;;;4975414;28;20030;-74
2020/12/23 06:01:39;;;;;;;8.63;5.40;;;;;;;;;;4975222;28;20476;-74
2020/12/23 06:04:11;;;;;;;7.22;5.10;;;;;;;;;;4975140;28;20050;-74
2020/12/23 06:06:37;;;;;;;7.45;4.97;;;;;;;;;;4975043;28;20143;-74
2020/12/23 06:09:07;;;;;;;12.18;6.15;;;;;;;;;;4974453;28;20500;-74
2020/12/23 06:11:36;;;;;;;9.15;6.47;;;;;;;;;;4974901;28;20031;-74
2020/12/23 06:14:21;;;;;;;17.25;9.82;;;;;;;;;;4974669;28;20034;-74
2020/12/23 06:17:04;;;;;;;14.52;8.55;;;;;;;;;;4975041;28;20043;-74
2020/12/23 06:19:37;;;;;;;13.05;8.43;;;;;;;;;;4974722;28;20046;-74
2020/12/23 06:22:08;;;;;;;13.27;7.78;;;;;;;;;;4974915;28;20113;-74
2020/12/23 06:24:35;;;;;;;8.48;6.40;;;;;;;;;;4974251;28;20045;-74
2020/12/23 06:27:03;;;;;;;8.23;6.03;;;;;;;;;;4974774;28;20038;-74
2020/12/23 06:29:31;;;;;;;7.15;5.72;;;;;;;;;;4974436;28;20468;-74
2020/12/23 06:32:00;;;;;;;8.05;5.43;;;;;;;;;;4974809;28;20035;-74
2020/12/23 06:34:28;;;;;;;8.40;5.43;;;;;;;;;;4974343;28;20485;-74
2020/12/23 06:36:54;;;;;;;17.13;10.32;;;;;;;;;;4974559;28;20130;-74
2020/12/23 06:39:31;;;;;;;16.60;11.05;;;;;;;;;;4974650;28;20089;-74
2020/12/23 06:41:59;;;;;;;20.25;11.48;;;;;;;;;;4974339;28;20042;-74
2020/12/23 06:44:45;;;;;;;27.45;11.68;;;;;;;;;;4989585;28;20034;-74
2020/12/23 06:47:17;;;;;;;14.45;8.65;;;;;;;;;;4973931;28;20385;-74
2020/12/23 06:49:45;;;;;;;12.23;7.97;;;;;;;;;;4974185;28;20050;-74
2020/12/23 06:52:23;;;;;;;10.23;7.35;;;;;;;;;;4974368;28;20038;-74
2020/12/23 06:54:52;;;;;;;12.50;7.30;;;;;;;;;;4974425;28;20046;-74
2020/12/23 06:57:35;;;;;;;12.55;7.88;;;;;;;;;;4974187;28;20045;-75
2020/12/23 07:00:03;;;;;;;10.70;7.72;;;;;;;;;;4974387;28;20039;-74
2020/12/23 07:02:33;;;;;;;13.45;7.40;;;;;;;;;;4974470;28;20039;-75
2020/12/23 07:04:59;;;;;;;9.93;6.95;;;;;;;;;;4989477;28;20082;-74
2020/12/23 07:07:43;;;;;;;8.13;6.32;;;;;;;;;;4974198;28;20410;-75
2020/12/23 07:10:16;;;;;;;8.93;6.30;;;;;;;;;;4973199;28;20043;-75
2020/12/23 07:12:51;;;;;;;8.32;6.35;;;;;;;;;;4974010;28;20125;-74
2020/12/23 07:15:22;;;;;;;9.03;5.77;;;;;;;;;;4974156;28;20052;-74
2020/12/23 07:17:50;;;;;;;9.38;6.38;;;;;;;;;;4972962;28;20043;-74
2020/12/23 07:20:16;;;;;;;7.57;6.07;;;;;;;;;;4974041;28;20085;-73
2020/12/23 07:22:47;;;;;;;8.75;5.78;;;;;;;;;;4978040;28;20370;-73
2020/12/23 07:25:26;;;;;;;6.10;5.05;;;;;;;;;;4978134;28;20097;-74
2020/12/23 07:27:55;;;;;;;9.38;6.13;;;;;;;;;;4977966;28;20125;-73
2020/12/23 07:30:22;;;;;;;7.38;5.68;;;;;;;;;;4977538;28;20499;-73
2020/12/23 07:33:01;;;;;;;5.90;4.93;;;;;;;;;;4977563;28;20034;-73
2020/12/23 07:35:27;;;;;;;8.30;5.93;;;;;;;;;;4977969;28;20039;-73
2020/12/23 07:37:57;;;;;;;6.55;5.20;;;;;;;;;;4977364;28;20031;-73
2020/12/23 07:40:22;;;;;;;6.40;5.25;;;;;;;;;;4967755;28;20030;-74
2020/12/23 07:42:49;;;;;;;6.50;4.72;;;;;;;;;;4967577;28;20374;-75
2020/12/23 07:45:16;;;;;;;7.03;5.55;;;;;;;;;;4972206;28;20034;-73
2020/12/23 07:47:52;;;;;;;6.78;4.75;;;;;;;;;;4977519;28;20039;-73
2020/12/23 07:50:17;;;;;;;6.30;5.18;;;;;;;;;;4977283;28;20137;-73
2020/12/23 07:52:43;;;;;;;12.13;8.02;;;;;;;;;;4992623;28;20066;-75
2020/12/23 07:55:16;;;;;;;9.60;7.22;;;;;;;;;;4992318;28;20042;-73
2020/12/23 07:57:42;;;;;;;10.75;8.18;;;;;;;;;;4977431;28;20031;-74
2020/12/23 08:00:12;;;;;;;9.75;6.75;;;;;;;;;;4977430;28;20481;-73
2020/12/23 08:02:40;;;;;;;9.55;7.55;;;;;;;;;;4992529;28;20056;-75
2020/12/23 08:05:06;;;;;;;9.80;6.63;;;;;;;;;;4975622;28;20043;-77
2020/12/23 08:07:32;;;;;;;8.30;6.25;;;;;;;;;;4967824;28;20031;-74
2020/12/23 08:10:07;;;;;;;7.70;5.53;;;;;;;;;;4980007;28;20039;-74
2020/12/23 08:12:33;;;;;;;6.47;5.55;;;;;;;;;;4965274;28;20039;-74
2020/12/23 08:14:58;;;;;;;7.13;5.25;;;;;;;;;;4965060;28;20086;-74
2020/12/23 08:17:24;;;;;;;6.38;4.75;;;;;;;;;;4966856;28;20785;-75
2020/12/23 08:20:16;;;;;;;6.75;5.38;;;;;;;;;;4965662;28;20050;-74
2020/12/23 08:22:45;;;;;;;8.73;5.28;;;;;;;;;;4970187;28;20078;-77
2020/12/23 08:25:13;;;;;;;6.63;5.07;;;;;;;;;;4976740;28;20484;-75
2020/12/23 08:27:40;;;;;;;7.50;5.05;;;;;;;;;;4976803;28;20034;-77
2020/12/23 08:30:08;;;;;;;6.88;5.15;;;;;;;;;;4976214;28;20043;-76
2020/12/23 08:32:37;;;;;;;9.38;6.32;;;;;;;;;;4975808;28;20076;-75
2020/12/23 08:35:05;;;;;;;8.52;6.40;;;;;;;;;;4976881;28;20045;-75
2020/12/23 08:37:34;;;;;;;9.27;6.53;;;;;;;;;;4976644;28;20046;-76
2020/12/23 08:39:59;;;;;;;7.90;6.20;;;;;;;;;;4976638;28;20054;-77
2020/12/23 08:42:25;;;;;;;6.72;5.43;;;;;;;;;;4975246;28;20055;-76
2020/12/23 08:44:53;;;;;;;8.10;6.25;;;;;;;;;;4976636;28;20042;-75
2020/12/23 08:47:37;;;;;;;8.18;6.25;;;;;;;;;;4979144;28;20043;-75
2020/12/23 08:50:03;;;;;;;8.57;6.47;;;;;;;;;;4977036;28;20043;-77
2020/12/23 08:52:28;;;;;;;8.15;5.90;;;;;;;;;;4976947;28;20119;-77
2020/12/23 08:54:54;;;;;;;9.80;7.07;;;;;;;;;;4976765;28;20078;-76
2020/12/23 08:57:25;;;;;;;19.63;13.05;;;;;;;;;;4976410;28;20065;-74
2020/12/23 08:59:52;;;;;;;17.13;10.70;;;;;;;;;;4976559;28;20033;-75
2020/12/23 09:02:18;;;;;;;16.38;9.00;;;;;;;;;;4976588;28;20397;-76
2020/12/23 09:04:44;;;;;;;15.23;10.93;;;;;;;;;;4975912;28;20041;-74
2020/12/23 09:07:09;;;;;;;13.35;9.25;;;;;;;;;;4976300;28;20030;-74
2020/12/23 09:09:36;;;;;;;11.98;8.48;;;;;;;;;;4975985;28;20531;-74
2020/12/23 09:12:04;;;;;;;12.77;8.50;;;;;;;;;;4976113;28;20081;-74
2020/12/23 09:14:34;;;;;;;19.65;13.65;;;;;;;;;;4976114;28;20042;-74
2020/12/23 09:17:06;;;;;;;15.88;12.13;;;;;;;;;;4975870;28;20039;-74
2020/12/23 09:20:00;;;;;;;24.55;17.23;;;;;;;;;;4975784;28;20523;-73
2020/12/23 09:22:26;;;;;;;25.05;14.55;;;;;;;;;;4975801;28;20035;-74
2020/12/23 09:24:53;;;;;;;16.17;11.57;;;;;;;;;;4975505;28;20102;-74
2020/12/23 09:27:23;;;;;;;13.00;10.15;;;;;;;;;;4975866;28;20066;-74
2020/12/23 09:29:50;;;;;;;15.05;9.85;;;;;;;;;;4975879;28;20481;-76
2020/12/23 09:32:16;;;;;;;18.85;13.10;;;;;;;;;;4976078;28;20042;-76
2020/12/23 09:34:42;;;;;;;17.92;12.48;;;;;;;;;;4975818;28;20369;-74
2020/12/23 09:37:07;;;;;;;16.73;11.68;;;;;;;;;;4975645;28;20381;-76
2020/12/23 09:39:38;;;;;;;15.05;10.77;;;;;;;;;;4975761;28;20127;-75
2020/12/23 09:42:07;;;;;;;28.25;18.38;;;;;;;;;;4975709;28;20034;-75
2020/12/23 09:44:37;;;;;;;21.42;14.20;;;;;;;;;;4975363;28;20436;-74
2020/12/23 09:47:03;;;;;;;27.45;18.08;;;;;;;;;;4975362;28;20045;-74
2020/12/23 09:49:28;;;;;;;30.98;20.13;;;;;;;;;;4975421;28;20038;-73
2020/12/23 09:51:54;;;;;;;26.98;19.70;;;;;;;;;;4974873;28;20037;-74
2020/12/23 09:54:20;;;;;;;21.33;15.60;;;;;;;;;;4975403;28;20460;-75
2020/12/23 09:56:49;;;;;;;18.63;13.90;;;;;;;;;;4975308;28;20536;-74
2020/12/23 09:59:15;;;;;;;17.02;14.00;;;;;;;;;;4975109;28;20030;-75
2020/12/23 10:01:41;;;;;;;15.45;11.73;;;;;;;;;;4975160;28;20042;-74
2020/12/23 10:04:06;;;;;;;17.38;12.57;;;;;;;;;;4975396;28;20073;-74
2020/12/23 10:06:32;;;;;;;13.95;10.80;;;;;;;;;;4975423;28;20044;-75
2020/12/23 10:08:57;;;;;;;18.27;13.57;;;;;;;;;;4973512;28;20039;-76
2020/12/23 10:11:23;;;;;;;18.45;12.40;;;;;;;;;;4974975;28;20066;-75
2020/12/23 10:13:48;;;;;;;16.27;12.07;;;;;;;;;;4975116;28;20045;-76
2020/12/23 10:16:13;;;;;;;16.23;11.40;;;;;;;;;;4974976;28;20081;-76
2020/12/23 10:18:39;;;;;;;16.27;11.45;;;;;;;;;;4972187;28;20149;-75
2020/12/23 10:21:04;;;;;;;12.90;10.15;;;;;;;;;;4974951;28;20527;-75
2020/12/23 10:23:30;;;;;;;39.53;25.27;;;;;;;;;;4974631;28;20038;-75
2020/12/23 10:25:55;;;;;;;19.55;14.13;;;;;;;;;;4974826;28;20027;-76
2020/12/23 10:28:20;;;;;;;30.33;19.55;;;;;;;;;;4974856;28;20097;-76
2020/12/23 10:30:46;;;;;;;18.80;14.05;;;;;;;;;;4989141;28;20378;-76
2020/12/23 10:33:11;;;;;;;19.98;13.30;;;;;;;;;;4974885;28;20404;-77
2020/12/23 10:35:37;;;;;;;17.15;12.38;;;;;;;;;;4974583;28;20043;-75
2020/12/23 10:38:03;;;;;;;13.50;10.77;;;;;;;;;;4974645;28;20473;-75
2020/12/23 10:40:28;;;;;;;13.63;10.52;;;;;;;;;;4974682;28;20035;-76
2020/12/23 10:42:53;;;;;;;12.98;10.00;;;;;;;;;;4974505;28;20521;-75
2020/12/23 10:45:19;;;;;;;14.10;9.77;;;;;;;;;;4974297;28;20041;-76
2020/12/23 10:47:44;;;;;;;10.38;8.38;;;;;;;;;;4973847;28;20121;-75
2020/12/23 10:50:09;;;;;;;14.02;9.45;;;;;;;;;;4974415;28;20408;-76
2020/12/23 10:52:35;;;;;;;10.35;8.30;;;;;;;;;;4974070;28;20458;-75
2020/12/23 10:55:00;;;;;;;11.95;9.10;;;;;;;;;;4988947;28;20061;-76
2020/12/23 10:57:25;;;;;;;12.65;9.80;;;;;;;;;;4973497;28;20043;-75
2020/12/23 10:59:51;;;;;;;11.57;9.13;;;;;;;;;;4989404;28;20031;-75
2020/12/23 11:02:17;;;;;;;12.63;10.00;;;;;;;;;;4974273;28;20081;-75
2020/12/23 11:04:44;;;;;;;13.93;10.32;;;;;;;;;;4989864;28;20043;-82
2020/12/23 11:07:11;;;;;;;16.20;11.45;;;;;;;;;;4975077;28;20034;-77
2020/12/23 11:09:37;;;;;;;16.13;11.85;;;;;;;;;;4974271;28;20105;-77
2020/12/23 11:12:02;;;;;;;15.55;10.25;;;;;;;;;;4974297;28;20505;-76
2020/12/23 11:14:27;;;;;;;13.85;10.02;;;;;;;;;;4973406;28;20061;-75
2020/12/23 11:16:53;;;;;;;13.60;10.48;;;;;;;;;;4973898;28;20071;-76
2020/12/23 11:19:18;;;;;;;13.10;10.23;;;;;;;;;;4974022;28;20050;-73
2020/12/23 11:21:44;;;;;;;14.70;11.32;;;;;;;;;;4974566;28;20061;-78
2020/12/23 11:24:09;;;;;;;14.57;10.45;;;;;;;;;;4989312;28;20042;-77
2020/12/23 11:26:35;;;;;;;12.70;9.35;;;;;;;;;;4974650;28;20043;-77
2020/12/23 11:29:01;;;;;;;13.90;10.05;;;;;;;;;;4988892;28;20034;-77
2020/12/23 11:31:26;;;;;;;12.27;9.10;;;;;;;;;;4974009;28;20046;-76
2020/12/23 11:33:52;;;;;;;15.80;12.30;;;;;;;;;;4973078;28;20035;-77
2020/12/23 11:36:18;;;;;;;17.27;11.40;;;;;;;;;;4974559;28;20074;-77
2020/12/23 11:38:43;;;;;;;18.40;11.90;;;;;;;;;;4988437;28;20046;-76
2020/12/23 11:41:09;;;;;;;14.43;10.25;;;;;;;;;;4970766;28;20073;-75
2020/12/23 11:43:35;;;;;;;13.13;8.88;;;;;;;;;;4937422;29;20109;-75
2020/12/23 11:46:02;;;;;;;12.98;9.32;;;;;;;;;;4953080;29;20485;-75
2020/12/23 11:48:28;;;;;;;17.42;10.73;;;;;;;;;;4953211;29;20142;-75
2020/12/23 11:50:53;;;;;;;15.55;11.63;;;;;;;;;;4958468;28;20114;-75
2020/12/23 11:53:18;;;;;;;15.27;11.10;;;;;;;;;;4973775;28;20042;-75
2020/12/23 11:55:44;;;;;;;15.45;12.38;;;;;;;;;;4973707;28;20455;-75
2020/12/23 11:58:09;;;;;;;13.50;10.43;;;;;;;;;;4973951;28;20072;-75
2020/12/23 12:00:34;;;;;;;15.40;11.77;;;;;;;;;;4973925;28;20084;-75
2020/12/23 12:03:00;;;;;;;17.33;12.20;;;;;;;;;;4973970;28;20042;-75
2020/12/23 12:05:25;;;;;;;14.15;10.88;;;;;;;;;;4973752;28;20045;-75
2020/12/23 12:07:50;;;;;;;14.10;11.38;;;;;;;;;;4974270;28;20065;-75
2020/12/23 12:10:16;;;;;;;15.52;11.80;;;;;;;;;;4977079;28;20101;-75
2020/12/23 12:12:41;;;;;;;14.10;11.48;;;;;;;;;;4992010;28;20035;-75
2020/12/23 12:15:07;;;;;;;16.38;12.88;;;;;;;;;;4977005;28;20516;-75
2020/12/23 12:17:32;;;;;;;16.15;11.45;;;;;;;;;;4976968;28;20034;-75
2020/12/23 12:19:58;;;;;;;14.63;11.30;;;;;;;;;;4977105;28;20039;-75
2020/12/23 12:22:23;;;;;;;12.27;9.95;;;;;;;;;;4992252;28;20444;-75
2020/12/23 12:24:48;;;;;;;18.35;12.10;;;;;;;;;;4977065;28;20050;-75
2020/12/23 12:27:14;;;;;;;14.25;10.75;;;;;;;;;;4977026;28;20039;-75
2020/12/23 12:29:40;;;;;;;14.82;9.68;;;;;;;;;;4976264;28;20038;-75
2020/12/23 12:32:05;;;;;;;15.23;11.25;;;;;;;;;;4977095;28;20077;-75
2020/12/23 12:34:32;;;;;;;13.90;10.52;;;;;;;;;;4977078;28;20054;-75
2020/12/23 12:36:58;;;;;;;16.98;11.73;;;;;;;;;;4991764;28;20042;-75
2020/12/23 12:39:23;;;;;;;14.43;10.25;;;;;;;;;;4976863;28;20027;-75
2020/12/23 12:41:49;;;;;;;12.90;9.68;;;;;;;;;;4976785;28;20050;-75
2020/12/23 12:44:14;;;;;;;14.27;9.98;;;;;;;;;;4976926;28;20043;-75
2020/12/23 12:46:40;;;;;;;12.85;9.52;;;;;;;;;;4976411;28;20081;-75
2020/12/23 12:49:05;;;;;;;11.93;8.93;;;;;;;;;;4976112;28;20041;-75
2020/12/23 12:51:31;;;;;;;12.00;9.02;;;;;;;;;;4991688;28;20027;-75
2020/12/23 12:53:57;;;;;;;12.82;9.20;;;;;;;;;;4976670;28;20038;-74
2020/12/23 12:56:27;;;;;;;14.93;10.35;;;;;;;;;;4976491;28;20034;-75
2020/12/23 12:58:55;;;;;;;13.30;10.18;;;;;;;;;;4976427;28;20042;-75
2020/12/23 13:01:20;;;;;;;13.07;9.38;;;;;;;;;;4976428;28;20019;-75
2020/12/23 13:03:46;;;;;;;12.98;10.05;;;;;;;;;;4976469;28;20074;-75
2020/12/23 13:06:11;;;;;;;12.20;9.05;;;;;;;;;;4976005;28;20506;-75
2020/12/23 13:08:37;;;;;;;14.30;10.50;;;;;;;;;;4976147;28;20420;-75
2020/12/23 13:11:03;;;;;;;14.25;10.13;;;;;;;;;;4990508;28;20031;-75
2020/12/23 13:13:29;;;;;;;16.30;10.70;;;;;;;;;;4976277;28;20039;-75
2020/12/23 13:15:54;;;;;;;11.70;9.00;;;;;;;;;;4976337;28;20396;-75
2020/12/23 13:18:20;;;;;;;13.52;9.75;;;;;;;;;;4975302;28;20138;-75
2020/12/23 13:20:45;;;;;;;17.77;10.32;;;;;;;;;;4976036;28;20097;-75
2020/12/23 13:23:11;;;;;;;13.32;10.15;;;;;;;;;;4975926;28;20038;-75
2020/12/23 13:25:36;;;;;;;14.38;10.70;;;;;;;;;;4975827;28;20039;-75
2020/12/23 13:28:01;;;;;;;16.60;11.52;;;;;;;;;;4975875;28;20173;-75
2020/12/23 13:30:27;;;;;;;26.13;16.08;;;;;;;;;;4975667;28;20077;-75
2020/12/23 13:32:52;;;;;;;21.80;13.50;;;;;;;;;;4975848;28;20739;-75
2020/12/23 13:35:18;;;;;;;16.48;12.85;;;;;;;;;;4975944;28;20041;-75
2020/12/23 13:37:50;;;;;;;17.30;11.45;;;;;;;;;;4975083;28;20039;-75
2020/12/23 13:40:15;;;;;;;16.33;12.75;;;;;;;;;;4975753;28;20081;-75
2020/12/23 13:42:41;;;;;;;17.27;11.75;;;;;;;;;;4975658;28;20519;-75
2020/12/23 13:45:07;;;;;;;18.73;11.45;;;;;;;;;;4975614;28;20038;-75
2020/12/23 13:47:33;;;;;;;18.92;12.82;;;;;;;;;;4975007;28;20130;-77
2020/12/23 13:49:58;;;;;;;21.50;13.23;;;;;;;;;;4975455;28;20118;-75
2020/12/23 13:52:29;;;;;;;18.48;13.10;;;;;;;;;;4974378;28;20078;-74
2020/12/23 13:54:58;;;;;;;17.30;12.43;;;;;;;;;;4958347;28;20038;-76
2020/12/23 13:57:23;;;;;;;17.15;12.23;;;;;;;;;;4975221;28;20085;-76
2020/12/23 13:59:48;;;;;;;14.88;11.80;;;;;;;;;;4975577;28;20060;-74
2020/12/23 14:02:14;;;;;;;20.33;12.30;;;;;;;;;;4975290;28;20113;-75
2020/12/23 14:04:39;;;;;;;18.13;12.57;;;;;;;;;;4990252;28;20039;-75
2020/12/23 14:07:05;;;;;;;17.83;12.13;;;;;;;;;;4975204;28;20058;-75
2020/12/23 14:09:30;;;;;;;14.30;10.82;;;;;;;;;;4974996;28;20403;-73
2020/12/23 14:11:55;;;;;;;17.95;13.10;;;;;;;;;;4974928;28;20034;-74
2020/12/23 14:14:21;;;;;;;19.45;12.38;;;;;;;;;;4975065;28;20495;-75
2020/12/23 14:16:46;;;;;;;16.35;11.60;;;;;;;;;;4975052;28;20485;-74
2020/12/23 14:19:12;;;;;;;16.88;11.63;;;;;;;;;;4974739;28;20054;-76
2020/12/23 14:21:37;;;;;;;18.27;12.40;;;;;;;;;;4975058;28;20064;-75
2020/12/23 14:24:03;;;;;;;25.90;15.88;;;;;;;;;;4974968;28;20125;-75
2020/12/23 14:26:29;;;;;;;27.35;17.77;;;;;;;;;;4974649;28;20081;-74
2020/12/23 14:28:54;;;;;;;25.30;16.13;;;;;;;;;;4974053;28;20057;-74